createdAt,value
2023-04-27T00:00:16.502Z,6.30
2023-04-27T00:05:21.480Z,6.20
2023-04-27T00:10:24.960Z,6.30
2023-04-27T00:15:29.739Z,6.10
2023-04-27T00:20:34.817Z,6.10
2023-04-27T00:25:38.326Z,6.20
2023-04-27T00:30:41.678Z,6.10
2023-04-27T00:35:46.335Z,6.40
2023-04-27T00:40:50.806Z,6.20
2023-04-27T00:45:54.801Z,6.10
2023-04-27T00:50:59.768Z,6.00
2023-04-27T00:56:05.259Z,6.10
2023-04-27T01:01:10.112Z,6.20
2023-04-27T01:06:15.063Z,6.10
2023-04-27T01:11:21.676Z,6.00
2023-04-27T01:16:25.208Z,6.10
2023-04-27T01:21:29.915Z,6.00
2023-04-27T01:26:36.969Z,6.10
2023-04-27T01:31:40.369Z,6.10
2023-04-27T01:36:43.821Z,6.10
2023-04-27T01:41:48.648Z,6.20
2023-04-27T01:46:52.257Z,6.10
2023-04-27T01:51:56.492Z,6.10
2023-04-27T01:57:01.989Z,6.20
2023-04-27T02:02:05.525Z,6.10
2023-04-27T02:07:09.106Z,6.10
2023-04-27T02:12:14.335Z,6.10
2023-04-27T02:17:17.649Z,6.00
2023-04-27T02:22:23.484Z,5.90
2023-04-27T02:27:28.218Z,5.80
2023-04-27T02:32:32.047Z,5.70
2023-04-27T02:37:35.385Z,5.70
2023-04-27T02:42:40.531Z,5.60
2023-04-27T02:47:43.952Z,5.60
2023-04-27T02:52:50.239Z,5.70
2023-04-27T02:57:55.622Z,5.70
2023-04-27T03:02:59.146Z,5.70
2023-04-27T03:08:03.422Z,5.60
2023-04-27T03:13:08.260Z,5.50
2023-04-27T03:18:11.716Z,5.50
2023-04-27T03:23:17.480Z,5.50
2023-04-27T03:28:22.838Z,5.50
2023-04-27T03:33:28.227Z,5.50
2023-04-27T03:38:31.998Z,5.40
2023-04-27T03:43:37.089Z,5.40
2023-04-27T03:48:40.624Z,5.40
2023-04-27T03:53:44.780Z,5.40
2023-04-27T03:58:49.641Z,5.40
2023-04-27T04:03:58.250Z,5.50
2023-04-27T04:09:01.976Z,5.60
2023-04-27T04:14:07.076Z,5.80
2023-04-27T04:19:11.257Z,5.80
2023-04-27T04:24:16.389Z,5.80
2023-04-27T04:29:21.914Z,5.90
2023-04-27T04:34:25.234Z,6.00
2023-04-27T04:39:31.143Z,6.10
2023-04-27T04:44:36.603Z,6.20
2023-04-27T04:49:40.329Z,6.30
2023-04-27T04:54:44.687Z,6.50
2023-04-27T04:59:49.751Z,6.60
2023-04-27T05:04:53.445Z,6.80
2023-04-27T05:09:57.480Z,6.80
2023-04-27T05:15:02.534Z,7.00
2023-04-27T05:20:08.157Z,7.10
2023-04-27T05:25:12.103Z,7.30
2023-04-27T05:30:17.336Z,7.30
2023-04-27T05:35:21.686Z,7.40
2023-04-27T05:40:25.286Z,8.00
2023-04-27T05:45:30.183Z,8.10
2023-04-27T05:50:33.803Z,8.50
2023-04-27T05:55:39.011Z,10.40
2023-04-27T06:00:44.009Z,11.00
2023-04-27T06:05:47.469Z,11.80
2023-04-27T06:10:51.782Z,13.70
2023-04-27T06:15:56.973Z,15.20
2023-04-27T06:21:01.952Z,16.10
2023-04-27T06:26:06.210Z,16.90
2023-04-27T06:31:11.850Z,16.10
2023-04-27T06:36:16.349Z,16.60
2023-04-27T06:41:19.654Z,16.20
2023-04-27T06:46:24.825Z,15.60
2023-04-27T06:51:28.504Z,16.40
2023-04-27T06:56:32.352Z,17.20
2023-04-27T07:01:37.601Z,17.40
2023-04-27T07:06:41.194Z,17.30
2023-04-27T07:11:44.934Z,16.00
2023-04-27T07:16:50.024Z,15.00
2023-04-27T07:21:54.325Z,15.00
2023-04-27T07:26:58.147Z,14.90
2023-04-27T07:32:05.805Z,14.60
2023-04-27T07:37:09.809Z,15.00
2023-04-27T07:42:13.449Z,15.30
2023-04-27T07:47:22.480Z,15.50
2023-04-27T07:52:26.605Z,14.70
2023-04-27T07:57:31.117Z,16.30
2023-04-27T08:02:36.341Z,16.90
2023-04-27T08:07:44.649Z,15.50
2023-04-27T08:12:48.789Z,14.70
2023-04-27T08:17:54.332Z,15.90
2023-04-27T08:22:58.408Z,15.30
2023-04-27T08:28:02.166Z,13.00
2023-04-27T08:33:07.059Z,12.40
2023-04-27T08:38:10.925Z,14.80
2023-04-27T08:43:14.808Z,16.30
2023-04-27T08:48:20.972Z,17.80
2023-04-27T08:53:25.543Z,18.00
2023-04-27T08:58:38.451Z,16.10
2023-04-27T09:08:51.041Z,12.30
2023-04-27T09:13:54.963Z,12.30
2023-04-27T09:19:00.290Z,12.70
2023-04-27T09:24:12.354Z,16.20
2023-04-27T09:29:16.460Z,16.20
2023-04-27T09:34:21.589Z,14.40
2023-04-27T09:39:25.692Z,13.20
2023-04-27T09:44:29.741Z,12.50
2023-04-27T09:49:36.386Z,14.60
2023-04-27T09:54:40.921Z,15.70
2023-04-27T10:00:01.746Z,18.00
2023-04-27T10:05:26.923Z,17.90
2023-04-27T10:10:31.233Z,16.60
2023-04-27T10:15:40.395Z,14.80
2023-04-27T10:20:46.679Z,13.70
2023-04-27T10:25:50.798Z,15.00
2023-04-27T10:30:54.271Z,16.40
2023-04-27T10:36:00.582Z,14.60
2023-04-27T10:41:07.182Z,14.10
2023-04-27T10:46:12.413Z,14.60
2023-04-27T10:51:18.087Z,14.80
2023-04-27T10:56:23.814Z,13.90
2023-04-27T11:01:29.465Z,14.80
2023-04-27T11:06:42.741Z,14.30
2023-04-27T11:11:46.597Z,15.00
2023-04-27T11:16:50.711Z,16.50
2023-04-27T11:22:03.293Z,16.60
2023-04-27T11:27:07.454Z,16.30
2023-04-27T11:32:19.966Z,15.70
2023-04-27T11:37:26.695Z,15.30
2023-04-27T11:42:35.200Z,14.20
2023-04-27T11:47:42.458Z,13.80
2023-04-27T11:52:49.465Z,13.40
2023-04-27T11:58:01.319Z,12.80
2023-04-27T12:03:05.407Z,12.90
2023-04-27T12:08:10.601Z,13.50
2023-04-27T12:13:14.461Z,14.40
2023-04-27T12:18:17.988Z,15.80
2023-04-27T12:23:23.235Z,15.00
2023-04-27T12:28:27.105Z,14.50
2023-04-27T12:33:30.858Z,14.40
2023-04-27T12:38:35.648Z,15.50
2023-04-27T12:43:41.160Z,15.50
2023-04-27T12:48:44.741Z,15.30
2023-04-27T12:53:50.491Z,15.50
2023-04-27T12:58:54.618Z,15.60
2023-04-27T13:04:01.917Z,16.10
2023-04-27T13:09:07.216Z,15.80
2023-04-27T13:14:13.322Z,15.60
2023-04-27T13:19:17.737Z,15.10
2023-04-27T13:24:24.806Z,14.30
2023-04-27T13:29:28.937Z,13.90
2023-04-27T13:34:33.374Z,13.30
2023-04-27T13:39:38.472Z,13.50
2023-04-27T13:44:41.961Z,14.10
2023-04-27T13:52:59.546Z,14.50
2023-04-27T13:58:03.102Z,14.40
2023-04-27T14:03:09.120Z,14.70
2023-04-27T14:08:13.912Z,14.00
2023-04-27T14:13:18.531Z,14.40
2023-04-27T14:18:29.652Z,15.50
2023-04-27T14:23:36.803Z,16.80
2023-04-27T14:28:41.029Z,16.70
2023-04-27T14:33:44.842Z,16.10
2023-04-27T14:38:49.607Z,15.80
2023-04-27T14:43:54.013Z,15.70
2023-04-27T14:48:57.344Z,14.40
2023-04-27T14:54:04.367Z,13.60
2023-04-27T14:59:08.171Z,13.40
2023-04-27T15:04:12.293Z,14.40
2023-04-27T15:09:17.412Z,14.30
2023-04-27T15:14:21.479Z,14.70
2023-04-27T15:19:25.061Z,15.90
2023-04-27T15:24:29.830Z,16.50
2023-04-27T15:29:33.252Z,16.40
2023-04-27T15:34:36.696Z,17.30
2023-04-27T15:39:42.140Z,16.90
2023-04-27T15:44:45.450Z,16.50
2023-04-27T15:49:57.085Z,15.40
2023-04-27T15:55:04.387Z,15.30
2023-04-27T16:00:10.388Z,15.40
2023-04-27T16:05:16.976Z,15.60
2023-04-27T16:10:21.679Z,15.20
2023-04-27T16:15:25.135Z,15.10
2023-04-27T16:20:30.870Z,14.90
2023-04-27T16:25:35.672Z,14.60
2023-04-27T16:30:39.007Z,14.20
2023-04-27T16:35:42.409Z,14.30
2023-04-27T16:40:47.335Z,14.50
2023-04-27T16:45:51.331Z,13.90
2023-04-27T16:50:55.688Z,13.50
2023-04-27T16:56:02.018Z,13.50
2023-04-27T17:01:05.645Z,13.40
2023-04-27T17:06:09.269Z,12.70
2023-04-27T17:11:14.601Z,12.00
2023-04-27T17:16:18.868Z,11.70
2023-04-27T17:21:24.912Z,11.40
2023-04-27T17:26:29.802Z,11.00
2023-04-27T17:31:33.930Z,10.50
2023-04-27T17:36:37.277Z,10.10
2023-04-27T17:41:43.259Z,9.70
2023-04-27T17:46:47.250Z,9.40
2023-04-27T17:51:50.710Z,9.00
2023-04-27T17:56:55.530Z,8.70
2023-04-27T18:01:59.491Z,8.30
2023-04-27T18:07:02.930Z,8.00
2023-04-27T18:12:11.108Z,7.70
2023-04-27T18:17:15.125Z,7.50
2023-04-27T18:22:19.026Z,7.20
2023-04-27T18:27:23.827Z,7.00
2023-04-27T18:32:27.211Z,6.90
2023-04-27T18:37:30.798Z,6.60
2023-04-27T18:42:35.676Z,6.40
2023-04-27T18:47:39.863Z,6.20
2023-04-27T18:52:43.169Z,6.00
2023-04-27T18:57:47.823Z,5.80
2023-04-27T19:02:52.319Z,5.70
2023-04-27T19:07:56.074Z,5.50
2023-04-27T19:13:01.301Z,5.40
2023-04-27T19:18:10.686Z,5.10
2023-04-27T19:23:16.780Z,5.00
2023-04-27T19:28:23.324Z,4.90
2023-04-27T19:33:27.020Z,4.80
2023-04-27T19:38:31.009Z,4.70
2023-04-27T19:43:36.972Z,4.60
2023-04-27T19:48:42.347Z,4.50
2023-04-27T19:53:46.425Z,4.60
2023-04-27T19:58:51.439Z,4.50
2023-04-27T20:03:55.048Z,4.50
2023-04-27T20:08:58.734Z,4.50
2023-04-27T20:14:03.529Z,4.40
2023-04-27T20:19:07.099Z,4.40
2023-04-27T20:24:10.688Z,4.40
2023-04-27T20:29:15.932Z,4.30
2023-04-27T20:34:19.362Z,4.20
2023-04-27T20:39:22.890Z,4.10
2023-04-27T20:44:27.914Z,4.10
2023-04-27T20:49:35.118Z,3.90
2023-04-27T20:54:39.756Z,3.90
2023-04-27T20:59:44.590Z,4.00
2023-04-27T21:04:48.051Z,3.90
2023-04-27T21:09:51.598Z,3.90
2023-04-27T21:14:56.983Z,3.60
2023-04-27T21:20:00.451Z,3.70
2023-04-27T21:25:05.091Z,3.70
2023-04-27T21:30:11.364Z,3.40
2023-04-27T21:35:15.060Z,3.60
2023-04-27T21:40:18.750Z,3.60
2023-04-27T21:45:23.864Z,3.50
2023-04-27T21:50:27.272Z,3.40
2023-04-27T21:55:31.033Z,3.40
2023-04-27T22:00:35.907Z,3.10
2023-04-27T22:05:40.794Z,3.10
2023-04-27T22:10:44.200Z,3.30
2023-04-27T22:15:49.127Z,3.00
2023-04-27T22:20:54.619Z,2.90
2023-04-27T22:25:59.535Z,2.90
2023-04-27T22:31:04.841Z,3.00
2023-04-27T22:36:09.415Z,3.00
2023-04-27T22:41:13.578Z,3.00
2023-04-27T22:46:18.464Z,2.90
2023-04-27T22:51:23.712Z,3.00
2023-04-27T22:56:27.662Z,2.90
2023-04-27T23:01:33.073Z,2.90
2023-04-27T23:06:36.485Z,2.80
2023-04-27T23:11:40.469Z,2.80
2023-04-27T23:16:48.465Z,2.80
2023-04-27T23:21:51.897Z,2.70
2023-04-27T23:26:55.881Z,2.70
2023-04-27T23:32:04.336Z,2.60
2023-04-27T23:37:07.880Z,2.70
2023-04-27T23:42:11.427Z,2.60
2023-04-27T23:47:16.437Z,2.50
2023-04-27T23:52:19.897Z,2.40
2023-04-27T23:57:23.314Z,2.30
